createdAt,value
2018-04-14T00:00:15.070Z,1013.07
2018-04-14T00:01:37.158Z,1013.1
2018-04-14T00:02:58.965Z,1013.12
2018-04-14T00:04:20.787Z,1013.11
2018-04-14T00:05:42.083Z,1013.12
2018-04-14T00:07:03.637Z,1013.15
2018-04-14T00:08:25.719Z,1013.16
2018-04-14T00:09:47.796Z,1013.16
2018-04-14T00:11:09.329Z,1013.18
2018-04-14T00:12:30.990Z,1013.21
2018-04-14T00:13:52.799Z,1013.25
2018-04-14T00:15:14.598Z,1013.2
2018-04-14T00:16:36.385Z,1013.26
2018-04-14T00:17:57.922Z,1013.29
2018-04-14T00:19:19.990Z,1013.3
2018-04-14T00:20:41.810Z,1013.3
2018-04-14T00:22:03.877Z,1013.27
2018-04-14T00:23:25.670Z,1013.22
2018-04-14T00:24:47.720Z,1013.36
2018-04-14T00:26:09.508Z,1013.31
2018-04-14T00:27:31.573Z,1013.29
2018-04-14T00:28:53.635Z,1013.32
2018-04-14T00:30:15.476Z,1013.36
2018-04-14T00:31:37.278Z,1013.33
2018-04-14T00:32:59.338Z,1013.34
2018-04-14T00:34:21.152Z,1013.37
2018-04-14T00:35:42.967Z,1013.36
2018-04-14T00:37:04.769Z,1013.39
2018-04-14T00:38:26.825Z,1013.4
2018-04-14T00:39:48.117Z,1013.36
2018-04-14T00:41:09.907Z,1013.41
2018-04-14T00:42:31.713Z,1013.39
2018-04-14T00:43:53.509Z,1013.39
2018-04-14T00:45:15.583Z,1013.36
2018-04-14T00:46:37.407Z,1013.36
2018-04-14T00:47:59.213Z,1013.35
2018-04-14T00:49:20.751Z,1013.34
2018-04-14T00:50:42.299Z,1013.29
2018-04-14T00:52:04.362Z,1013.29
2018-04-14T00:53:25.883Z,1013.31
2018-04-14T00:54:47.678Z,1013.33
2018-04-14T00:56:09.744Z,1013.34
2018-04-14T00:57:31.805Z,1013.38
2018-04-14T00:58:53.592Z,1013.4
2018-04-14T01:00:15.126Z,1013.44
2018-04-14T01:01:37.184Z,1013.4
2018-04-14T01:02:58.970Z,1013.42
2018-04-14T01:04:21.028Z,1013.45
2018-04-14T01:05:43.084Z,1013.42
2018-04-14T01:07:05.173Z,1013.49
2018-04-14T01:08:26.977Z,1013.43
2018-04-14T01:09:48.761Z,1013.48
2018-04-14T01:11:10.557Z,1013.43
2018-04-14T01:12:32.613Z,1013.42
2018-04-14T01:13:54.671Z,1013.41
2018-04-14T01:15:16.743Z,1013.4
2018-04-14T01:16:38.800Z,1013.4
2018-04-14T01:18:00.341Z,1013.44
2018-04-14T01:19:21.885Z,1013.38
2018-04-14T01:20:43.432Z,1013.4
2018-04-14T01:22:05.228Z,1013.43
2018-04-14T01:23:27.306Z,1013.38
2018-04-14T01:24:49.102Z,1013.35
2018-04-14T01:26:10.651Z,1013.36
2018-04-14T01:27:32.191Z,1013.34
2018-04-14T01:28:54.244Z,1013.34
2018-04-14T01:30:17.838Z,1013.33
2018-04-14T01:31:39.375Z,1013.36
2018-04-14T01:33:01.440Z,1013.38
2018-04-14T01:34:23.224Z,1013.37
2018-04-14T01:35:45.293Z,1013.4
2018-04-14T01:37:07.090Z,1013.41
2018-04-14T01:38:28.627Z,1013.41
2018-04-14T01:39:50.164Z,1013.46
2018-04-14T01:41:12.228Z,1013.43
2018-04-14T01:42:34.277Z,1013.51
2018-04-14T01:43:56.068Z,1013.51
2018-04-14T01:45:17.860Z,1013.46
2018-04-14T01:46:39.699Z,1013.52
2018-04-14T01:48:01.752Z,1013.46
2018-04-14T01:49:23.556Z,1013.5
2018-04-14T01:50:45.351Z,1013.53
2018-04-14T01:52:07.410Z,1013.58
2018-04-14T01:53:29.220Z,1013.59
2018-04-14T01:54:50.754Z,1013.6
2018-04-14T01:56:12.548Z,1013.64
2018-04-14T01:57:34.333Z,1013.66
2018-04-14T01:58:56.384Z,1013.63
2018-04-14T02:00:17.927Z,1013.69
2018-04-14T02:01:39.722Z,1013.7
2018-04-14T02:03:01.275Z,1013.7
2018-04-14T02:04:23.330Z,1013.73
2018-04-14T02:05:45.387Z,1013.76
2018-04-14T02:07:06.657Z,1013.72
2018-04-14T02:08:28.450Z,1013.8
2018-04-14T02:09:49.978Z,1013.81
2018-04-14T02:11:12.027Z,1013.85
2018-04-14T02:12:34.077Z,1013.82
2018-04-14T02:13:56.118Z,1013.87
2018-04-14T02:15:18.188Z,1013.9
2018-04-14T02:16:39.720Z,1013.88
2018-04-14T02:18:01.777Z,1013.96
2018-04-14T02:19:23.576Z,1013.95
2018-04-14T02:20:45.649Z,1013.95
2018-04-14T02:22:07.714Z,1013.95
2018-04-14T02:23:29.516Z,1013.98
2018-04-14T02:24:51.303Z,1013.98
2018-04-14T02:26:13.096Z,1013.99
2018-04-14T02:27:34.883Z,1013.96
2018-04-14T02:28:56.152Z,1014
2018-04-14T02:30:17.998Z,1014.04
2018-04-14T02:31:39.532Z,1014.07
2018-04-14T02:33:01.603Z,1014.04
2018-04-14T02:34:23.661Z,1014.07
2018-04-14T02:35:45.470Z,1014.09
2018-04-14T02:37:07.601Z,1014.08
2018-04-14T02:38:29.414Z,1014.12
2018-04-14T02:39:51.478Z,1014.17
2018-04-14T02:41:13.282Z,1014.17
2018-04-14T02:42:35.347Z,1014.22
2018-04-14T02:43:57.414Z,1014.18
2018-04-14T02:45:19.208Z,1014.19
2018-04-14T02:46:40.756Z,1014.23
2018-04-14T02:48:02.303Z,1014.23
2018-04-14T02:49:24.093Z,1014.25
2018-04-14T02:50:45.638Z,1014.22
2018-04-14T02:52:07.467Z,1014.21
2018-04-14T02:53:29.337Z,1014.24
2018-04-14T02:54:51.132Z,1014.28
2018-04-14T02:56:13.196Z,1014.25
2018-04-14T02:57:35.247Z,1014.26
2018-04-14T02:58:57.312Z,1014.31
2018-04-14T03:00:19.140Z,1014.31
2018-04-14T03:01:40.682Z,1014.33
2018-04-14T03:03:02.759Z,1014.38
2018-04-14T03:04:24.840Z,1014.42
2018-04-14T03:05:46.628Z,1014.4
2018-04-14T03:07:08.201Z,1014.38
2018-04-14T03:08:30.004Z,1014.38
2018-04-14T03:09:51.526Z,1014.4
2018-04-14T03:11:13.620Z,1014.44
2018-04-14T03:12:35.697Z,1014.44
2018-04-14T03:13:57.500Z,1014.43
2018-04-14T03:15:19.289Z,1014.42
2018-04-14T03:16:41.096Z,1014.4
2018-04-14T03:18:02.887Z,1014.37
2018-04-14T03:19:24.937Z,1014.42
2018-04-14T03:20:47.040Z,1014.45
2018-04-14T03:22:09.112Z,1014.43
2018-04-14T03:23:31.169Z,1014.44
2018-04-14T03:24:52.949Z,1014.44
2018-04-14T03:26:15.009Z,1014.46
2018-04-14T03:27:36.808Z,1014.5
2018-04-14T03:28:58.063Z,1014.47
2018-04-14T03:30:20.117Z,1014.47
2018-04-14T03:31:42.204Z,1014.49
2018-04-14T03:33:04.010Z,1014.52
2018-04-14T03:34:25.534Z,1014.53
2018-04-14T03:35:47.072Z,1014.58
2018-04-14T03:37:09.130Z,1014.53
2018-04-14T03:38:31.225Z,1014.56
2018-04-14T03:39:53.283Z,1014.56
2018-04-14T03:41:14.829Z,1014.56
2018-04-14T03:42:36.876Z,1014.59
2018-04-14T03:43:58.401Z,1014.6
2018-04-14T03:45:20.248Z,1014.59
2018-04-14T03:46:42.053Z,1014.6
2018-04-14T03:48:03.870Z,1014.56
2018-04-14T03:49:25.931Z,1014.57
2018-04-14T03:50:47.199Z,1014.62
2018-04-14T03:52:09.289Z,1014.56
2018-04-14T03:53:31.085Z,1014.63
2018-04-14T03:54:52.618Z,1014.67
2018-04-14T03:56:14.427Z,1014.65
2018-04-14T03:57:36.485Z,1014.67
2018-04-14T03:58:58.011Z,1014.65
2018-04-14T04:00:20.063Z,1014.66
2018-04-14T04:01:41.844Z,1014.69
2018-04-14T04:03:03.382Z,1014.7
2018-04-14T04:04:25.448Z,1014.69
2018-04-14T04:05:47.265Z,1014.72
2018-04-14T04:07:09.065Z,1014.71
2018-04-14T04:08:31.141Z,1014.71
2018-04-14T04:09:53.207Z,1014.71
2018-04-14T04:11:15.257Z,1014.77
2018-04-14T04:12:36.797Z,1014.8
2018-04-14T04:13:58.602Z,1014.77
2018-04-14T04:15:20.666Z,1014.83
2018-04-14T04:16:42.331Z,1014.77
2018-04-14T04:18:03.861Z,1014.79
2018-04-14T04:19:25.945Z,1014.79
2018-04-14T04:20:47.843Z,1014.81
2018-04-14T04:22:09.639Z,1014.82
2018-04-14T04:23:31.442Z,1014.81
2018-04-14T04:24:53.489Z,1014.81
2018-04-14T04:26:15.035Z,1014.79
2018-04-14T04:27:37.120Z,1014.8
2018-04-14T04:28:59.183Z,1014.8
2018-04-14T04:30:20.974Z,1014.79
2018-04-14T04:31:43.030Z,1014.79
2018-04-14T04:33:05.095Z,1014.8
2018-04-14T04:34:27.153Z,1014.83
2018-04-14T04:35:48.937Z,1014.88
2018-04-14T04:37:10.722Z,1014.89
2018-04-14T04:38:32.531Z,1014.88
2018-04-14T04:39:54.585Z,1014.95
2018-04-14T04:41:16.117Z,1014.96
2018-04-14T04:42:38.174Z,1014.94
2018-04-14T04:43:59.963Z,1014.95
2018-04-14T04:45:22.009Z,1014.96
2018-04-14T04:46:43.821Z,1014.99
2018-04-14T04:48:05.612Z,1014.99
2018-04-14T04:49:27.156Z,1014.97
2018-04-14T04:50:48.694Z,1014.94
2018-04-14T04:52:10.739Z,1014.99
2018-04-14T04:53:32.778Z,1015.03
2018-04-14T04:54:54.839Z,1015
2018-04-14T04:56:16.641Z,1015.06
2018-04-14T04:57:38.687Z,1015.07
2018-04-14T04:59:00.740Z,1015.07
2018-04-14T05:00:22.805Z,1015.08
2018-04-14T05:01:44.623Z,1015.1
2018-04-14T05:03:06.145Z,1015.11
2018-04-14T05:04:27.970Z,1015.13
2018-04-14T05:05:50.043Z,1015.11
2018-04-14T05:07:12.128Z,1015.13
2018-04-14T05:08:34.212Z,1015.12
2018-04-14T05:09:56.001Z,1015.12
2018-04-14T05:11:17.539Z,1015.17
2018-04-14T05:12:39.074Z,1015.15
2018-04-14T05:14:01.148Z,1015.2
2018-04-14T05:15:22.967Z,1015.24
2018-04-14T05:16:45.055Z,1015.22
2018-04-14T05:18:06.867Z,1015.27
2018-04-14T05:19:28.395Z,1015.27
2018-04-14T05:20:50.263Z,1015.26
2018-04-14T05:22:12.074Z,1015.25
2018-04-14T05:23:34.180Z,1015.35
2018-04-14T05:24:56.244Z,1015.32
2018-04-14T05:26:18.321Z,1015.42
2018-04-14T05:27:40.101Z,1015.43
2018-04-14T05:29:01.881Z,1015.39
2018-04-14T05:30:23.958Z,1015.47
2018-04-14T05:31:46.017Z,1015.51
2018-04-14T05:33:08.075Z,1015.55
2018-04-14T05:34:29.868Z,1015.49
2018-04-14T05:35:51.696Z,1015.59
2018-04-14T05:37:13.504Z,1015.53
2018-04-14T05:38:35.512Z,1015.57
2018-04-14T05:39:57.578Z,1015.54
2018-04-14T05:41:19.627Z,1015.55
2018-04-14T05:42:41.682Z,1015.5
2018-04-14T05:44:03.539Z,1015.53
2018-04-14T05:45:25.091Z,1015.59
2018-04-14T05:46:47.178Z,1015.58
2018-04-14T05:48:08.981Z,1015.57
2018-04-14T05:49:30.786Z,1015.64
2018-04-14T05:50:52.619Z,1015.62
2018-04-14T05:52:14.443Z,1015.58
2018-04-14T05:53:36.260Z,1015.57
2018-04-14T05:54:58.373Z,1015.6
2018-04-14T05:56:20.460Z,1015.65
2018-04-14T05:57:42.271Z,1015.66
2018-04-14T05:59:04.108Z,1015.68
2018-04-14T06:00:26.201Z,1015.7
2018-04-14T06:01:48.269Z,1015.72
2018-04-14T06:03:09.806Z,1015.71
2018-04-14T06:04:31.353Z,1015.76
2018-04-14T06:05:53.412Z,1015.76
2018-04-14T06:07:14.965Z,1015.76
2018-04-14T06:08:36.772Z,1015.74
2018-04-14T06:09:58.875Z,1015.77
2018-04-14T06:11:20.960Z,1015.78
2018-04-14T06:12:42.495Z,1015.83
2018-04-14T06:14:04.561Z,1015.9
2018-04-14T06:15:26.653Z,1015.85
2018-04-14T06:16:48.460Z,1015.87
2018-04-14T06:18:10.521Z,1015.92
2018-04-14T06:19:32.597Z,1015.88
2018-04-14T06:20:53.890Z,1015.88
2018-04-14T06:22:15.756Z,1015.89
2018-04-14T06:23:38.092Z,1015.96
2018-04-14T06:24:59.647Z,1015.94
2018-04-14T06:26:21.756Z,1015.94
2018-04-14T06:27:43.828Z,1015.97
2018-04-14T06:29:05.621Z,1015.93
2018-04-14T06:30:27.414Z,1015.93
2018-04-14T06:31:49.508Z,1015.99
2018-04-14T06:33:11.613Z,1015.92
2018-04-14T06:34:33.148Z,1015.89
2018-04-14T06:35:55.222Z,1015.94
2018-04-14T06:37:17.081Z,1015.94
2018-04-14T06:38:39.149Z,1015.93
2018-04-14T06:40:00.952Z,1015.95
2018-04-14T06:41:23.024Z,1016
2018-04-14T06:42:44.833Z,1016.01
2018-04-14T06:44:06.927Z,1016.02
2018-04-14T06:45:28.516Z,1016.01
2018-04-14T06:46:50.594Z,1016.04
2018-04-14T06:48:12.131Z,1016.02
2018-04-14T06:49:34.200Z,1016.03
2018-04-14T06:50:56.291Z,1016.08
2018-04-14T06:52:18.361Z,1016.11
2018-04-14T06:53:40.217Z,1016.06
2018-04-14T06:55:02.311Z,1016.08
2018-04-14T06:56:23.879Z,1016.14
2018-04-14T06:57:45.670Z,1016.12
2018-04-14T06:59:07.233Z,1016.11
2018-04-14T07:00:29.340Z,1016.18
2018-04-14T07:01:51.466Z,1016.2
2018-04-14T07:03:13.547Z,1016.22
2018-04-14T07:04:35.635Z,1016.22
2018-04-14T07:05:57.564Z,1016.23
2018-04-14T07:07:19.377Z,1016.21
2018-04-14T07:08:41.215Z,1016.28
2018-04-14T07:10:03.303Z,1016.26
2018-04-14T07:11:25.361Z,1016.26
2018-04-14T07:12:47.187Z,1016.31
2018-04-14T07:14:09.001Z,1016.33
2018-04-14T07:15:31.075Z,1016.32
2018-04-14T07:16:53.170Z,1016.34
2018-04-14T07:18:15.241Z,1016.37
2018-04-14T07:19:37.060Z,1016.39
2018-04-14T07:20:58.971Z,1016.35
2018-04-14T07:22:21.314Z,1016.38
2018-04-14T07:23:43.406Z,1016.41
2018-04-14T07:25:05.517Z,1016.39
2018-04-14T07:26:27.599Z,1016.37
2018-04-14T07:27:49.564Z,1016.36
2018-04-14T07:29:11.657Z,1016.44
2018-04-14T07:30:33.221Z,1016.42
2018-04-14T07:31:55.302Z,1016.47
2018-04-14T07:33:17.119Z,1016.44
2018-04-14T07:34:39.182Z,1016.48
2018-04-14T07:36:01.247Z,1016.53
2018-04-14T07:37:22.537Z,1016.54
2018-04-14T07:38:44.445Z,1016.55
2018-04-14T07:40:06.252Z,1016.62
2018-04-14T07:41:28.071Z,1016.64
2018-04-14T07:42:49.885Z,1016.64
2018-04-14T07:44:11.698Z,1016.66
2018-04-14T07:45:33.802Z,1016.72
2018-04-14T07:46:55.372Z,1016.73
2018-04-14T07:48:17.175Z,1016.75
2018-04-14T07:49:39.258Z,1016.79
2018-04-14T07:51:01.068Z,1016.68
2018-04-14T07:52:22.909Z,1016.74
2018-04-14T07:53:45.020Z,1016.77
2018-04-14T07:55:07.137Z,1016.79
2018-04-14T07:56:29.263Z,1016.81
2018-04-14T07:57:51.361Z,1016.76
2018-04-14T07:59:13.453Z,1016.8
2018-04-14T08:00:35.557Z,1016.81
2018-04-14T08:01:57.391Z,1016.74
2018-04-14T08:03:19.214Z,1016.79
2018-04-14T08:04:41.035Z,1016.79
2018-04-14T08:06:03.132Z,1016.82
2018-04-14T08:07:24.998Z,1016.86
2018-04-14T08:08:47.113Z,1016.82
2018-04-14T08:10:09.202Z,1016.87
2018-04-14T08:11:31.350Z,1016.89
2018-04-14T08:12:53.347Z,1016.92
2018-04-14T08:14:15.182Z,1016.9
2018-04-14T08:15:37.300Z,1016.95
2018-04-14T08:16:59.116Z,1016.95
2018-04-14T08:18:21.248Z,1016.96
2018-04-14T08:19:43.102Z,1016.99
2018-04-14T08:21:05.227Z,1016.95
2018-04-14T08:22:26.769Z,1017.04
2018-04-14T08:23:48.881Z,1017.04
2018-04-14T08:25:10.963Z,1017.07
2018-04-14T08:26:33.028Z,1017.05
2018-04-14T08:27:54.856Z,1017.08
2018-04-14T08:29:16.674Z,1017.1
2018-04-14T08:30:38.756Z,1017.12
2018-04-14T08:32:00.826Z,1017.2
2018-04-14T08:33:22.907Z,1017.22
2018-04-14T08:34:44.458Z,1017.18
2018-04-14T08:36:06.543Z,1017.27
2018-04-14T08:37:28.455Z,1017.24
2018-04-14T08:38:49.633Z,1017.26
2018-04-14T08:40:11.445Z,1017.21
2018-04-14T08:41:33.537Z,1017.27
2018-04-14T08:42:55.085Z,1017.24
2018-04-14T08:44:17.175Z,1017.24
2018-04-14T08:45:38.993Z,1017.36
2018-04-14T08:47:00.794Z,1017.37
2018-04-14T08:48:26.552Z,1017.38
2018-04-14T08:49:49.777Z,1017.37
2018-04-14T08:51:11.588Z,1017.38
2018-04-14T08:52:33.421Z,1017.38
2018-04-14T08:53:55.517Z,1017.4
2018-04-14T08:55:17.682Z,1017.41
2018-04-14T08:56:39.504Z,1017.44
2018-04-14T08:58:01.314Z,1017.45
2018-04-14T08:59:23.407Z,1017.47
2018-04-14T09:00:45.247Z,1017.53
2018-04-14T09:02:06.794Z,1017.54
2018-04-14T09:03:28.366Z,1017.53
2018-04-14T09:04:50.186Z,1017.6
2018-04-14T09:06:12.275Z,1017.58
2018-04-14T09:07:33.828Z,1017.68
2018-04-14T09:08:55.667Z,1017.64
2018-04-14T09:10:16.980Z,1017.68
2018-04-14T09:11:39.060Z,1017.59
2018-04-14T09:13:00.890Z,1017.66
2018-04-14T09:14:23.002Z,1017.69
2018-04-14T09:15:44.571Z,1017.69
2018-04-14T09:17:06.683Z,1017.73
2018-04-14T09:18:28.802Z,1017.76
2018-04-14T09:19:50.890Z,1017.75
2018-04-14T09:21:12.707Z,1017.79
2018-04-14T09:22:34.524Z,1017.79
2018-04-14T09:23:56.595Z,1017.74
2018-04-14T09:25:18.687Z,1017.81
2018-04-14T09:26:40.793Z,1017.8
2018-04-14T09:28:02.878Z,1017.84
2018-04-14T09:29:24.974Z,1017.79
2018-04-14T09:30:46.787Z,1017.83
2018-04-14T09:32:08.842Z,1017.85
2018-04-14T09:33:30.653Z,1017.89
2018-04-14T09:34:52.261Z,1017.86
2018-04-14T09:36:14.354Z,1017.95
2018-04-14T09:37:36.459Z,1017.96
2018-04-14T09:38:58.279Z,1017.96
2018-04-14T09:40:19.862Z,1017.97
2018-04-14T09:41:41.681Z,1017.95
2018-04-14T09:43:03.538Z,1017.97
2018-04-14T09:44:25.614Z,1018.02
2018-04-14T09:45:47.710Z,1018.02
2018-04-14T09:47:09.791Z,1018.03
2018-04-14T09:48:31.596Z,1017.98
2018-04-14T09:49:53.691Z,1018.03
2018-04-14T09:51:15.810Z,1018.05
2018-04-14T09:52:37.898Z,1018.01
2018-04-14T09:54:00.024Z,1018.02
2018-04-14T09:55:22.131Z,1018.02
2018-04-14T09:56:43.442Z,1018.03
2018-04-14T09:58:05.238Z,1018.05
2018-04-14T09:59:27.078Z,1018.1
2018-04-14T10:00:48.894Z,1018.09
2018-04-14T10:02:10.958Z,1018.1
2018-04-14T10:03:33.056Z,1018.15
2018-04-14T10:04:55.150Z,1018.14
2018-04-14T10:06:17.243Z,1018.18
2018-04-14T10:07:38.807Z,1018.22
2018-04-14T10:09:00.358Z,1018.15
2018-04-14T10:10:22.217Z,1018.21
2018-04-14T10:11:44.443Z,1018.24
2018-04-14T10:13:06.534Z,1018.21
2018-04-14T10:14:28.359Z,1018.26
2018-04-14T10:15:49.666Z,1018.28
2018-04-14T10:17:11.494Z,1018.26
2018-04-14T10:18:33.317Z,1018.28
2018-04-14T10:19:55.405Z,1018.31
2018-04-14T10:21:17.227Z,1018.32
2018-04-14T10:22:39.293Z,1018.39
2018-04-14T10:24:01.385Z,1018.35
2018-04-14T10:25:23.446Z,1018.36
2018-04-14T10:26:45.308Z,1018.4
2018-04-14T10:28:07.269Z,1018.4
2018-04-14T10:29:29.352Z,1018.41
2018-04-14T10:30:51.179Z,1018.43
2018-04-14T10:32:13.012Z,1018.41
2018-04-14T10:33:35.182Z,1018.42
2018-04-14T10:34:56.994Z,1018.45
2018-04-14T10:36:19.102Z,1018.45
2018-04-14T10:37:40.983Z,1018.52
2018-04-14T10:39:03.217Z,1018.64
2018-04-14T10:40:25.314Z,1018.55
2018-04-14T10:41:47.138Z,1018.6
2018-04-14T10:43:08.968Z,1018.6
2018-04-14T10:44:31.076Z,1018.6
2018-04-14T10:45:53.170Z,1018.61
2018-04-14T10:47:14.746Z,1018.66
2018-04-14T10:48:36.840Z,1018.62
2018-04-14T10:49:58.669Z,1018.61
2018-04-14T10:51:20.764Z,1018.65
2018-04-14T10:52:42.594Z,1018.61
2018-04-14T10:54:04.729Z,1018.67
2018-04-14T10:55:26.565Z,1018.74
2018-04-14T10:56:48.814Z,1018.66
2018-04-14T10:58:10.911Z,1018.75
2018-04-14T10:59:32.735Z,1018.77
2018-04-14T11:00:54.839Z,1018.81
2018-04-14T11:02:16.937Z,1018.85
2018-04-14T11:03:39.055Z,1018.82
2018-04-14T11:05:01.270Z,1018.86
2018-04-14T11:06:23.405Z,1018.83
2018-04-14T11:07:45.459Z,1018.87
2018-04-14T11:09:07.587Z,1018.83
2018-04-14T11:10:29.711Z,1018.86
2018-04-14T11:11:51.818Z,1018.88
2018-04-14T11:13:13.382Z,1018.9
2018-04-14T11:14:35.478Z,1018.95
2018-04-14T11:15:57.584Z,1018.91
2018-04-14T11:17:18.869Z,1018.91
2018-04-14T11:18:40.960Z,1018.91
2018-04-14T11:20:02.834Z,1018.95
2018-04-14T11:21:24.942Z,1018.96
2018-04-14T11:22:47.031Z,1018.98
2018-04-14T11:24:08.901Z,1018.94
2018-04-14T11:25:31.017Z,1018.94
2018-04-14T11:26:52.860Z,1018.95
2018-04-14T11:28:14.426Z,1018.93
2018-04-14T11:29:36.545Z,1018.97
2018-04-14T11:30:58.668Z,1019.01
2018-04-14T11:32:20.977Z,1019
2018-04-14T11:33:43.082Z,1019.03
2018-04-14T11:35:05.188Z,1019.03
2018-04-14T11:36:27.007Z,1019.05
2018-04-14T11:37:49.087Z,1019.08
2018-04-14T11:39:11.197Z,1019.07
2018-04-14T11:40:33.026Z,1019.1
2018-04-14T11:41:54.850Z,1019.12
2018-04-14T11:43:16.421Z,1019.11
2018-04-14T11:44:38.664Z,1019.09
2018-04-14T11:46:00.510Z,1019.07
2018-04-14T11:47:22.347Z,1019.09
2018-04-14T11:48:43.922Z,1019.1
2018-04-14T11:50:06.083Z,1019.05
2018-04-14T11:51:27.908Z,1019.08
2018-04-14T11:52:49.747Z,1019.11
2018-04-14T11:54:11.574Z,1019.22
2018-04-14T11:55:33.677Z,1019.25
2018-04-14T11:56:55.523Z,1019.19
2018-04-14T11:58:17.087Z,1019.23
2018-04-14T11:59:39.191Z,1019.25
2018-04-14T12:01:01.067Z,1019.22
2018-04-14T12:02:23.229Z,1019.29
2018-04-14T12:03:45.421Z,1019.29
2018-04-14T12:05:07.692Z,1019.27
2018-04-14T12:06:29.513Z,1019.33
2018-04-14T12:07:51.667Z,1019.35
2018-04-14T12:09:13.778Z,1019.29
2018-04-14T12:10:35.628Z,1019.32
2018-04-14T12:11:57.226Z,1019.37
2018-04-14T12:13:19.337Z,1019.39
2018-04-14T12:14:41.455Z,1019.39
2018-04-14T12:16:03.295Z,1019.38
2018-04-14T12:17:25.381Z,1019.35
2018-04-14T12:18:47.455Z,1019.39
2018-04-14T12:20:09.266Z,1019.39
2018-04-14T12:21:31.350Z,1019.38
2018-04-14T12:22:53.193Z,1019.4
2018-04-14T12:24:15.055Z,1019.41
2018-04-14T12:25:37.169Z,1019.39
2018-04-14T12:26:59.272Z,1019.41
2018-04-14T12:28:21.387Z,1019.48
2018-04-14T12:29:43.524Z,1019.47
2018-04-14T12:31:05.345Z,1019.48
2018-04-14T12:32:27.435Z,1019.53
2018-04-14T12:33:49.273Z,1019.54
2018-04-14T12:35:11.363Z,1019.52
2018-04-14T12:36:33.470Z,1019.51
2018-04-14T12:37:55.571Z,1019.52
2018-04-14T12:39:17.405Z,1019.51
2018-04-14T12:40:39.520Z,1019.52
2018-04-14T12:42:01.625Z,1019.59
2018-04-14T12:43:23.721Z,1019.55
2018-04-14T12:44:45.333Z,1019.58
2018-04-14T12:46:07.411Z,1019.61
2018-04-14T12:47:29.253Z,1019.62
2018-04-14T12:48:50.552Z,1019.65
2018-04-14T12:50:12.676Z,1019.61
2018-04-14T12:51:34.493Z,1019.62
2018-04-14T12:52:56.569Z,1019.6
2018-04-14T12:54:18.693Z,1019.68
2018-04-14T12:55:40.276Z,1019.67
2018-04-14T12:57:02.381Z,1019.78
2018-04-14T12:58:24.223Z,1019.75
2018-04-14T12:59:46.285Z,1019.71
2018-04-14T13:01:08.385Z,1019.74
2018-04-14T13:02:30.281Z,1019.73
2018-04-14T13:03:51.838Z,1019.78
2018-04-14T13:05:13.955Z,1019.83
2018-04-14T13:06:35.789Z,1019.86
2018-04-14T13:07:57.640Z,1019.79
2018-04-14T13:09:19.747Z,1019.77
2018-04-14T13:10:41.844Z,1019.82
2018-04-14T13:12:03.698Z,1019.89
2018-04-14T13:13:25.533Z,1019.87
2018-04-14T13:14:47.625Z,1019.86
2018-04-14T13:16:09.228Z,1019.92
2018-04-14T13:17:31.073Z,1019.91
2018-04-14T13:18:53.158Z,1019.87
2018-04-14T13:20:15.183Z,1019.83
2018-04-14T13:21:37.004Z,1019.8
2018-04-14T13:22:58.578Z,1019.73
2018-04-14T13:24:20.420Z,1019.75
2018-04-14T13:25:42.512Z,1019.77
2018-04-14T13:27:04.613Z,1019.74
2018-04-14T13:28:26.789Z,1019.75
2018-04-14T13:29:48.429Z,1019.74
2018-04-14T13:31:10.570Z,1019.68
2018-04-14T13:32:32.784Z,1019.73
2018-04-14T13:33:54.911Z,1019.77
2018-04-14T13:35:16.478Z,1019.81
2018-04-14T13:36:38.669Z,1019.8
2018-04-14T13:38:00.583Z,1019.8
2018-04-14T13:39:22.711Z,1019.81
2018-04-14T13:40:44.299Z,1019.81
2018-04-14T13:42:06.380Z,1019.82
2018-04-14T13:43:28.224Z,1019.88
2018-04-14T13:44:49.791Z,1019.87
2018-04-14T13:46:11.890Z,1019.87
2018-04-14T13:47:33.987Z,1019.88
2018-04-14T13:48:55.838Z,1019.9
2018-04-14T13:50:17.677Z,1019.89
2018-04-14T13:51:39.557Z,1019.94
2018-04-14T13:53:01.659Z,1019.95
2018-04-14T13:54:23.774Z,1019.95
2018-04-14T13:55:45.632Z,1019.97
2018-04-14T13:57:07.743Z,1020.01
2018-04-14T13:58:29.890Z,1019.97
2018-04-14T13:59:51.470Z,1019.98
2018-04-14T14:01:13.350Z,1019.97
2018-04-14T14:02:35.450Z,1019.99
2018-04-14T14:03:57.550Z,1020.05
2018-04-14T14:05:19.685Z,1020.03
2018-04-14T14:06:41.834Z,1020
2018-04-14T14:08:04.830Z,1020.04
2018-04-14T14:09:26.665Z,1020.02
2018-04-14T14:10:48.511Z,1019.97
2018-04-14T14:12:10.594Z,1019.97
2018-04-14T14:13:32.789Z,1019.96
2018-04-14T14:14:54.610Z,1019.93
2018-04-14T14:16:16.716Z,1019.92
2018-04-14T14:17:38.821Z,1019.9
2018-04-14T14:19:00.406Z,1019.91
2018-04-14T14:20:22.246Z,1019.84
2018-04-14T14:21:44.361Z,1019.85
2018-04-14T14:23:06.503Z,1019.88
2018-04-14T14:24:28.337Z,1019.85
2018-04-14T14:25:50.428Z,1019.83
2018-04-14T14:27:12.551Z,1019.86
2018-04-14T14:28:34.379Z,1019.86
2018-04-14T14:29:56.470Z,1019.91
2018-04-14T14:31:18.642Z,1019.9
2018-04-14T14:32:40.457Z,1019.91
2018-04-14T14:34:02.552Z,1019.9
2018-04-14T14:35:24.668Z,1019.91
2018-04-14T14:36:46.771Z,1019.95
2018-04-14T14:38:08.906Z,1019.87
2018-04-14T14:39:30.734Z,1019.93
2018-04-14T14:40:52.822Z,1019.95
2018-04-14T14:42:14.926Z,1019.95
2018-04-14T14:43:37.267Z,1019.93
2018-04-14T14:44:59.112Z,1019.95
2018-04-14T14:46:20.957Z,1019.92
2018-04-14T14:47:42.545Z,1019.96
2018-04-14T14:49:04.390Z,1019.96
2018-04-14T14:50:26.227Z,1019.96
2018-04-14T14:51:47.788Z,1019.97
2018-04-14T14:53:09.918Z,1019.93
2018-04-14T14:54:32.029Z,1019.88
2018-04-14T14:55:54.145Z,1019.91
2018-04-14T14:57:16.309Z,1019.89
2018-04-14T14:58:37.933Z,1019.89
2018-04-14T14:59:59.758Z,1019.89
2018-04-14T15:01:21.589Z,1019.89
2018-04-14T15:02:43.696Z,1019.92
2018-04-14T15:04:05.886Z,1019.96
2018-04-14T15:05:27.472Z,1019.94
2018-04-14T15:06:49.301Z,1019.94
2018-04-14T15:08:11.425Z,1019.94
2018-04-14T15:09:33.534Z,1019.95
2018-04-14T15:10:55.378Z,1019.98
2018-04-14T15:12:17.225Z,1019.98
2018-04-14T15:13:39.076Z,1020.02
2018-04-14T15:15:01.177Z,1020.01
2018-04-14T15:16:23.281Z,1020.01
2018-04-14T15:17:45.372Z,1020.05
2018-04-14T15:19:07.450Z,1020.01
2018-04-14T15:20:29.020Z,1020.06
2018-04-14T15:21:51.113Z,1020.08
2018-04-14T15:23:12.952Z,1020.06
2018-04-14T15:24:35.069Z,1020.06
2018-04-14T15:25:57.178Z,1020.04
2018-04-14T15:27:19.280Z,1020.04
2018-04-14T15:28:40.856Z,1020.04
2018-04-14T15:30:02.965Z,1020.06
2018-04-14T15:31:25.070Z,1020.07
2018-04-14T15:32:46.629Z,1020.06
2018-04-14T15:34:08.739Z,1020.12
2018-04-14T15:35:30.627Z,1020.1
2018-04-14T15:36:52.757Z,1020.18
2018-04-14T15:38:14.848Z,1020.13
2018-04-14T15:39:36.770Z,1020.14
2018-04-14T15:40:58.861Z,1020.11
2018-04-14T15:42:20.952Z,1020.13
2018-04-14T15:43:42.788Z,1020.12
2018-04-14T15:45:04.383Z,1020.12
2018-04-14T15:46:25.708Z,1020.17
2018-04-14T15:47:47.267Z,1020.18
2018-04-14T15:49:08.571Z,1020.2
2018-04-14T15:50:30.652Z,1020.21
2018-04-14T15:51:52.740Z,1020.19
2018-04-14T15:53:14.836Z,1020.16
2018-04-14T15:54:36.925Z,1020.19
2018-04-14T15:55:59.006Z,1020.16
2018-04-14T15:57:21.133Z,1020.15
2018-04-14T15:58:42.997Z,1020.19
2018-04-14T16:00:04.806Z,1020.15
2018-04-14T16:01:26.920Z,1020.19
2018-04-14T16:02:48.737Z,1020.13
2018-04-14T16:04:10.309Z,1020.11
2018-04-14T16:05:32.269Z,1020.08
2018-04-14T16:06:53.841Z,1020.09
2018-04-14T16:08:15.940Z,1020.07
2018-04-14T16:09:37.764Z,1020.07
2018-04-14T16:10:59.886Z,1020.12
2018-04-14T16:12:21.823Z,1020.12
2018-04-14T16:13:43.128Z,1020.14
2018-04-14T16:15:05.239Z,1020.14
2018-04-14T16:16:27.445Z,1020.11
2018-04-14T16:17:49.549Z,1020.12
2018-04-14T16:19:11.667Z,1020.11
2018-04-14T16:20:33.744Z,1020.12
2018-04-14T16:21:55.833Z,1020.08
2018-04-14T16:23:17.694Z,1020.06
2018-04-14T16:24:39.594Z,1020.06
2018-04-14T16:26:01.695Z,1020.05
2018-04-14T16:27:23.791Z,1020.07
2018-04-14T16:28:45.656Z,1020.03
2018-04-14T16:30:07.477Z,1020
2018-04-14T16:31:29.571Z,1020.02
2018-04-14T16:32:51.638Z,1020.01
2018-04-14T16:34:13.468Z,1020.04